createdAt,value
2023-04-26T00:00:16.331Z,828.9167
2023-04-26T00:01:20.478Z,825.6667
2023-04-26T00:02:24.797Z,828.4167
2023-04-26T00:03:25.489Z,830.7273
2023-04-26T00:04:29.885Z,839.2500
2023-04-26T00:05:34.162Z,842.9167
2023-04-26T00:06:38.292Z,832.0000
2023-04-26T00:07:42.456Z,827.3333
2023-04-26T00:08:46.575Z,828.1667
2023-04-26T00:09:50.719Z,831.7500
2023-04-26T00:10:54.977Z,845.0833
2023-04-26T00:11:59.088Z,849.9167
2023-04-26T00:13:03.279Z,835.5000
2023-04-26T00:14:07.451Z,831.2500
2023-04-26T00:15:11.609Z,830.2500
2023-04-26T00:16:15.852Z,832.0000
2023-04-26T00:17:19.974Z,841.8333
2023-04-26T00:18:24.209Z,848.2500
2023-04-26T00:19:28.353Z,831.4167
2023-04-26T00:20:32.522Z,824.4167
2023-04-26T00:21:36.681Z,823.6667
2023-04-26T00:22:40.987Z,824.6667
2023-04-26T00:23:45.333Z,832.8333
2023-04-26T00:24:49.497Z,842.9167
2023-04-26T00:25:53.646Z,837.7500
2023-04-26T00:26:58.542Z,827.5833
2023-04-26T00:28:03.058Z,826.4167
2023-04-26T00:29:07.236Z,827.6667
2023-04-26T00:30:11.413Z,831.7500
2023-04-26T00:31:15.603Z,856.5000
2023-04-26T00:32:19.741Z,844.0833
2023-04-26T00:33:23.999Z,830.0000
2023-04-26T00:34:28.161Z,830.7500
2023-04-26T00:35:32.307Z,832.3333
2023-04-26T00:36:36.572Z,831.8333
2023-04-26T00:37:40.712Z,842.4167
2023-04-26T00:38:44.894Z,840.2500
2023-04-26T00:39:49.036Z,828.5000
2023-04-26T00:40:53.352Z,824.4167
2023-04-26T00:41:57.494Z,825.8333
2023-04-26T00:43:01.672Z,825.9167
2023-04-26T00:44:06.130Z,834.7500
2023-04-26T00:45:10.306Z,837.1667
2023-04-26T00:46:14.519Z,827.0833
2023-04-26T00:47:18.662Z,822.3333
2023-04-26T00:48:22.800Z,824.1667
2023-04-26T00:49:26.997Z,824.7500
2023-04-26T00:50:31.168Z,831.2500
2023-04-26T00:51:35.351Z,833.5000
2023-04-26T00:52:39.492Z,820.9167
2023-04-26T00:53:43.664Z,819.1667
2023-04-26T00:54:47.865Z,821.3333
2023-04-26T00:55:52.058Z,825.5833
2023-04-26T00:56:56.280Z,833.3333
2023-04-26T00:58:00.454Z,836.0833
2023-04-26T00:59:04.605Z,820.6667
2023-04-26T01:00:08.823Z,816.8333
2023-04-26T01:01:12.993Z,815.9167
2023-04-26T01:02:17.230Z,818.5000
2023-04-26T01:03:21.566Z,829.6667
2023-04-26T01:04:25.922Z,836.2500
2023-04-26T01:05:30.140Z,829.0833
2023-04-26T01:06:34.361Z,824.6667
2023-04-26T01:07:38.630Z,825.0833
2023-04-26T01:08:42.789Z,826.2500
2023-04-26T01:09:46.954Z,835.4167
2023-04-26T01:10:51.142Z,851.9167
2023-04-26T01:11:55.297Z,824.6667
2023-04-26T01:12:59.484Z,821.5833
2023-04-26T01:14:00.094Z,822.8182
2023-04-26T01:15:04.273Z,823.4167
2023-04-26T01:16:08.461Z,837.5000
2023-04-26T01:17:12.668Z,856.7500
2023-04-26T01:18:16.788Z,843.5000
2023-04-26T01:19:20.999Z,833.0000
2023-04-26T01:20:25.130Z,830.6667
2023-04-26T01:21:29.305Z,831.7500
2023-04-26T01:22:33.466Z,832.9167
2023-04-26T01:23:37.664Z,842.5000
2023-04-26T01:24:41.803Z,836.5833
2023-04-26T01:25:45.996Z,823.5000
2023-04-26T01:26:50.154Z,819.7500
2023-04-26T01:27:54.371Z,820.5833
2023-04-26T01:28:58.524Z,824.1667
2023-04-26T01:30:02.735Z,835.0833
2023-04-26T01:31:06.946Z,839.4167
2023-04-26T01:32:11.083Z,831.3333
2023-04-26T01:33:15.230Z,827.3333
2023-04-26T01:34:19.387Z,829.1667
2023-04-26T01:35:23.572Z,829.9167
2023-04-26T01:36:27.754Z,833.0833
2023-04-26T01:37:32.019Z,833.2500
2023-04-26T01:38:36.127Z,829.7500
2023-04-26T01:39:40.276Z,826.8333
2023-04-26T01:40:44.446Z,825.8333
2023-04-26T01:41:48.624Z,829.5833
2023-04-26T01:42:52.812Z,841.2500
2023-04-26T01:43:56.979Z,841.5833
2023-04-26T01:45:01.168Z,833.8333
2023-04-26T01:46:05.384Z,825.0833
2023-04-26T01:47:09.537Z,827.2500
2023-04-26T01:48:13.758Z,832.0000
2023-04-26T01:49:17.894Z,833.5000
2023-04-26T01:50:22.047Z,850.8333
2023-04-26T01:51:26.354Z,856.0833
2023-04-26T01:52:30.541Z,841.1667
2023-04-26T01:53:34.703Z,835.0000
2023-04-26T01:54:38.865Z,834.8333
2023-04-26T01:55:43.085Z,837.4167
2023-04-26T01:56:47.258Z,845.6667
2023-04-26T01:57:51.443Z,847.1667
2023-04-26T01:58:55.839Z,832.2500
2023-04-26T02:00:00.009Z,825.7500
2023-04-26T02:01:04.247Z,827.0833
2023-04-26T02:02:08.528Z,828.8333
2023-04-26T02:03:12.778Z,835.5833
2023-04-26T02:04:16.985Z,849.9167
2023-04-26T02:05:23.489Z,837.1818
2023-04-26T02:06:28.026Z,828.9167
2023-04-26T02:07:32.174Z,831.5833
2023-04-26T02:08:36.367Z,833.5000
2023-04-26T02:09:40.518Z,838.5000
2023-04-26T02:10:44.734Z,847.9167
2023-04-26T02:11:48.841Z,841.0000
2023-04-26T02:12:53.067Z,834.0833
2023-04-26T02:13:57.204Z,832.0833
2023-04-26T02:15:01.394Z,835.2500
2023-04-26T02:16:05.564Z,839.7500
2023-04-26T02:17:09.734Z,852.1667
2023-04-26T02:18:13.967Z,843.1667
2023-04-26T02:19:18.094Z,827.9167
2023-04-26T02:20:22.245Z,828.9167
2023-04-26T02:21:22.804Z,833.1818
2023-04-26T02:22:26.981Z,835.5833
2023-04-26T02:23:31.159Z,845.2500
2023-04-26T02:24:35.306Z,843.4167
2023-04-26T02:25:39.496Z,835.0833
2023-04-26T02:26:43.639Z,834.0000
2023-04-26T02:27:47.814Z,833.0000
2023-04-26T02:28:52.289Z,834.8333
2023-04-26T02:29:56.654Z,842.5000
2023-04-26T02:31:00.795Z,838.5000
2023-04-26T02:32:04.953Z,828.5833
2023-04-26T02:33:09.167Z,826.5833
2023-04-26T02:34:13.335Z,828.9167
2023-04-26T02:35:17.536Z,830.3333
2023-04-26T02:36:21.712Z,843.0000
2023-04-26T02:37:25.865Z,847.6667
2023-04-26T02:38:30.056Z,826.5833
2023-04-26T02:39:34.204Z,817.6667
2023-04-26T02:40:38.374Z,822.0833
2023-04-26T02:41:42.570Z,830.5000
2023-04-26T02:42:46.734Z,840.4167
2023-04-26T02:43:50.892Z,848.1667
2023-04-26T02:44:55.055Z,835.6667
2023-04-26T02:46:00.719Z,827.9167
2023-04-26T02:47:04.975Z,828.3333
2023-04-26T02:48:09.212Z,828.1667
2023-04-26T02:49:13.710Z,832.7500
2023-04-26T02:50:17.854Z,838.7500
2023-04-26T02:51:22.025Z,830.5833
2023-04-26T02:52:26.194Z,823.1667
2023-04-26T02:53:30.340Z,821.7500
2023-04-26T02:54:34.524Z,824.0000
2023-04-26T02:55:38.668Z,829.2500
2023-04-26T02:56:42.830Z,846.3333
2023-04-26T02:57:47.004Z,839.5833
2023-04-26T02:58:51.477Z,824.0833
2023-04-26T02:59:55.824Z,823.0833
2023-04-26T03:01:01.454Z,829.6667
2023-04-26T03:02:00.749Z,829.8182
2023-04-26T03:03:04.993Z,835.8333
2023-04-26T03:04:09.434Z,838.5000
2023-04-26T03:05:13.683Z,828.6667
2023-04-26T03:06:17.829Z,824.9167
2023-04-26T03:07:21.999Z,824.9167
2023-04-26T03:08:26.154Z,826.1667
2023-04-26T03:09:30.295Z,833.2500
2023-04-26T03:10:34.462Z,836.9167
2023-04-26T03:11:38.624Z,825.3333
2023-04-26T03:12:42.802Z,817.2500
2023-04-26T03:13:46.948Z,817.9167
2023-04-26T03:14:51.111Z,818.0000
2023-04-26T03:15:55.272Z,826.7500
2023-04-26T03:16:59.515Z,840.8333
2023-04-26T03:18:03.765Z,821.0000
2023-04-26T03:19:07.914Z,809.7500
2023-04-26T03:20:12.071Z,813.7500
2023-04-26T03:21:16.237Z,819.2500
2023-04-26T03:22:20.376Z,825.9167
2023-04-26T03:23:24.561Z,842.5000
2023-04-26T03:24:28.701Z,832.3333
2023-04-26T03:25:32.885Z,822.3333
2023-04-26T03:26:37.035Z,819.7500
2023-04-26T03:27:41.206Z,823.7500
2023-04-26T03:28:45.365Z,828.6667
2023-04-26T03:29:49.572Z,840.0000
2023-04-26T03:30:53.708Z,832.0833
2023-04-26T03:31:57.921Z,820.3333
2023-04-26T03:33:02.145Z,820.1667
2023-04-26T03:34:06.304Z,820.5833
2023-04-26T03:35:10.451Z,822.0000
2023-04-26T03:36:14.653Z,831.7500
2023-04-26T03:37:18.801Z,830.9167
2023-04-26T03:38:23.217Z,821.9167
2023-04-26T03:39:27.379Z,820.7500
2023-04-26T03:40:31.531Z,823.5000
2023-04-26T03:41:35.709Z,826.7500
2023-04-26T03:42:39.866Z,835.4167
2023-04-26T03:43:44.038Z,837.2500
2023-04-26T03:44:48.199Z,827.2500
2023-04-26T03:45:52.352Z,819.9167
2023-04-26T03:46:56.520Z,816.5000
2023-04-26T03:48:00.722Z,819.9167
2023-04-26T03:49:04.977Z,829.3333
2023-04-26T03:50:09.158Z,856.6667
2023-04-26T03:51:13.310Z,831.1667
2023-04-26T03:52:17.473Z,823.7500
2023-04-26T03:53:21.890Z,825.5000
2023-04-26T03:54:26.067Z,826.1667
2023-04-26T03:55:30.231Z,833.6667
2023-04-26T03:56:34.389Z,848.7500
2023-04-26T03:57:38.566Z,839.8333
2023-04-26T03:58:42.692Z,832.8333
2023-04-26T03:59:46.851Z,829.3333
2023-04-26T04:00:51.009Z,829.1667
2023-04-26T04:01:55.177Z,836.9167
2023-04-26T04:02:59.458Z,848.5833
2023-04-26T04:04:03.980Z,839.0833
2023-04-26T04:05:08.385Z,828.2500
2023-04-26T04:06:12.668Z,825.2500
2023-04-26T04:07:16.819Z,827.8333
2023-04-26T04:08:20.996Z,834.2500
2023-04-26T04:09:25.142Z,846.5000
2023-04-26T04:10:29.343Z,838.0833
2023-04-26T04:11:33.487Z,825.3333
2023-04-26T04:12:37.676Z,824.0833
2023-04-26T04:13:41.828Z,827.4167
2023-04-26T04:14:46.005Z,831.5000
2023-04-26T04:15:50.435Z,842.7500
2023-04-26T04:16:54.597Z,834.4167
2023-04-26T04:17:58.769Z,826.6667
2023-04-26T04:19:02.953Z,823.0833
2023-04-26T04:20:07.092Z,822.9167
2023-04-26T04:21:11.269Z,824.6667
2023-04-26T04:22:15.431Z,840.2500
2023-04-26T04:23:19.612Z,836.8333
2023-04-26T04:24:23.773Z,824.4167
2023-04-26T04:25:27.953Z,823.9167
2023-04-26T04:26:32.236Z,828.3333
2023-04-26T04:27:36.376Z,829.3333
2023-04-26T04:28:40.548Z,837.3333
2023-04-26T04:29:44.744Z,836.7500
2023-04-26T04:30:48.935Z,830.0000
2023-04-26T04:31:53.074Z,828.0000
2023-04-26T04:32:57.269Z,827.9167
2023-04-26T04:34:01.405Z,830.4167
2023-04-26T04:35:05.620Z,845.2500
2023-04-26T04:36:09.772Z,851.5833
2023-04-26T04:37:13.917Z,837.8333
2023-04-26T04:38:18.094Z,831.5000
2023-04-26T04:39:22.254Z,830.5833
2023-04-26T04:40:26.427Z,832.6667
2023-04-26T04:41:30.578Z,839.6667
2023-04-26T04:42:34.745Z,844.8333
2023-04-26T04:43:38.900Z,834.0000
2023-04-26T04:44:43.085Z,826.2500
2023-04-26T04:45:47.232Z,824.8333
2023-04-26T04:46:51.470Z,825.3333
2023-04-26T04:47:55.644Z,832.1667
2023-04-26T04:48:59.799Z,846.1667
2023-04-26T04:50:03.952Z,833.6667
2023-04-26T04:51:08.130Z,822.4167
2023-04-26T04:52:12.289Z,819.8333
2023-04-26T04:53:16.464Z,821.8333
2023-04-26T04:54:20.646Z,823.8333
2023-04-26T04:55:25.185Z,834.2500
2023-04-26T04:56:29.349Z,828.7500
2023-04-26T04:57:33.502Z,819.3333
2023-04-26T04:58:37.668Z,816.5833
2023-04-26T04:59:41.844Z,821.0000
2023-04-26T05:00:46.002Z,828.0000
2023-04-26T05:01:50.189Z,839.7500
2023-04-26T05:02:54.479Z,832.5833
2023-04-26T05:03:58.969Z,824.3333
2023-04-26T05:05:03.486Z,826.5833
2023-04-26T05:06:07.724Z,827.6667
2023-04-26T05:07:11.916Z,827.3333
2023-04-26T05:08:16.065Z,857.0833
2023-04-26T05:09:20.232Z,846.3333
2023-04-26T05:10:24.394Z,834.5833
2023-04-26T05:11:28.635Z,828.5833
2023-04-26T05:12:32.774Z,827.4167
2023-04-26T05:13:36.939Z,829.9167
2023-04-26T05:14:41.072Z,841.0833
2023-04-26T05:15:45.258Z,834.3333
2023-04-26T05:16:49.501Z,822.7500
2023-04-26T05:17:53.702Z,821.9167
2023-04-26T05:18:57.857Z,822.0000
2023-04-26T05:20:02.033Z,822.4167
2023-04-26T05:21:06.217Z,832.6667
2023-04-26T05:22:10.387Z,837.5833
2023-04-26T05:23:14.547Z,825.0000
2023-04-26T05:24:18.715Z,819.6667
2023-04-26T05:25:23.066Z,821.1667
2023-04-26T05:26:27.536Z,823.4167
2023-04-26T05:27:31.694Z,831.0833
2023-04-26T05:28:35.869Z,837.6667
2023-04-26T05:29:40.017Z,830.0833
2023-04-26T05:30:44.218Z,825.5833
2023-04-26T05:31:48.396Z,824.5000
2023-04-26T05:32:52.598Z,820.1667
2023-04-26T05:33:56.730Z,823.7500
2023-04-26T05:35:00.878Z,831.5833
2023-04-26T05:36:01.230Z,818.6364
2023-04-26T05:37:05.397Z,810.9167
2023-04-26T05:38:09.549Z,814.0833
2023-04-26T05:39:13.709Z,817.0833
2023-04-26T05:40:17.870Z,823.2500
2023-04-26T05:41:22.048Z,831.5000
2023-04-26T05:42:26.204Z,825.5000
2023-04-26T05:43:30.391Z,818.1667
2023-04-26T05:44:34.531Z,819.6667
2023-04-26T05:45:38.729Z,820.2500
2023-04-26T05:46:42.877Z,822.4167
2023-04-26T05:47:47.064Z,839.8333
2023-04-26T05:48:51.222Z,831.3333
2023-04-26T05:49:55.401Z,816.5833
2023-04-26T05:50:59.574Z,812.5833
2023-04-26T05:52:03.747Z,811.8333
2023-04-26T05:53:07.914Z,812.7500
2023-04-26T05:54:12.113Z,828.7500
2023-04-26T05:55:16.265Z,819.6667
2023-04-26T05:56:20.466Z,813.5833
2023-04-26T05:57:24.691Z,812.8333
2023-04-26T05:58:28.855Z,814.3333
2023-04-26T05:59:33.122Z,819.4167
2023-04-26T06:00:37.269Z,838.2500
2023-04-26T06:01:41.417Z,829.6667
2023-04-26T06:02:45.759Z,815.5000
2023-04-26T06:03:50.180Z,816.7500
2023-04-26T06:04:54.487Z,819.0833
2023-04-26T06:05:59.065Z,822.6667
2023-04-26T06:07:03.314Z,839.6667
2023-04-26T06:08:07.458Z,836.1667
2023-04-26T06:09:11.636Z,824.3333
2023-04-26T06:10:15.791Z,821.9167
2023-04-26T06:11:19.951Z,822.8333
2023-04-26T06:12:24.110Z,826.2500
2023-04-26T06:13:28.292Z,840.0000
2023-04-26T06:14:32.461Z,841.4167
2023-04-26T06:15:36.628Z,831.1667
2023-04-26T06:16:43.005Z,829.0000
2023-04-26T06:17:42.481Z,828.3636
2023-04-26T06:18:46.623Z,829.0833
2023-04-26T06:19:50.802Z,839.9167
2023-04-26T06:20:54.945Z,840.7500
2023-04-26T06:21:59.128Z,825.7500
2023-04-26T06:23:03.267Z,821.1667
2023-04-26T06:24:07.445Z,821.0000
2023-04-26T06:25:11.591Z,821.1667
2023-04-26T06:26:15.791Z,833.0833
2023-04-26T06:27:19.949Z,832.0833
2023-04-26T06:28:24.145Z,822.5833
2023-04-26T06:29:28.285Z,819.3333
2023-04-26T06:30:32.449Z,821.4167
2023-04-26T06:31:36.712Z,822.4167
2023-04-26T06:32:40.996Z,830.6667
2023-04-26T06:33:45.144Z,825.9167
2023-04-26T06:34:49.313Z,814.4167
2023-04-26T06:35:53.462Z,811.8333
2023-04-26T06:36:57.620Z,811.6667
2023-04-26T06:38:01.770Z,813.1667
2023-04-26T06:39:05.973Z,823.1667
2023-04-26T06:40:10.120Z,827.5833
2023-04-26T06:41:14.294Z,813.4167
2023-04-26T06:42:18.445Z,810.0833
2023-04-26T06:43:22.614Z,810.0000
2023-04-26T06:44:26.777Z,812.5833
2023-04-26T06:45:30.938Z,820.0833
2023-04-26T06:46:35.118Z,824.2500
2023-04-26T06:47:39.328Z,811.9167
2023-04-26T06:48:43.535Z,814.3333
2023-04-26T06:49:47.713Z,816.6667
2023-04-26T06:50:51.879Z,820.0000
2023-04-26T06:51:56.072Z,825.9167
2023-04-26T06:53:00.228Z,833.1667
2023-04-26T06:54:04.398Z,822.4167
2023-04-26T06:55:08.534Z,812.7500
2023-04-26T06:56:12.692Z,813.7500
2023-04-26T06:57:16.855Z,815.5000
2023-04-26T06:58:21.107Z,819.9167
2023-04-26T06:59:25.272Z,828.6667
2023-04-26T07:00:29.439Z,822.1667
2023-04-26T07:01:33.643Z,815.5000
2023-04-26T07:02:38.023Z,813.9167
2023-04-26T07:03:42.571Z,815.5000
2023-04-26T07:04:47.011Z,820.1667
2023-04-26T07:05:51.571Z,834.6667
2023-04-26T07:06:55.730Z,827.8333
2023-04-26T07:07:59.982Z,819.8333
2023-04-26T07:09:04.155Z,819.0833
2023-04-26T07:10:08.317Z,821.1667
2023-04-26T07:11:12.542Z,830.2500
2023-04-26T07:12:16.664Z,841.0833
2023-04-26T07:13:20.861Z,835.0000
2023-04-26T07:14:24.993Z,825.5000
2023-04-26T07:15:29.178Z,822.6667
2023-04-26T07:16:33.475Z,822.5833
2023-04-26T07:17:37.663Z,826.7500
2023-04-26T07:18:41.790Z,838.1667
2023-04-26T07:19:45.957Z,829.7500
2023-04-26T07:20:50.142Z,821.1667
2023-04-26T07:21:54.316Z,816.9167
2023-04-26T07:22:58.465Z,817.0000
2023-04-26T07:24:02.639Z,822.0000
2023-04-26T07:25:06.778Z,835.5000
2023-04-26T07:26:10.981Z,825.5833
2023-04-26T07:27:15.206Z,818.3333
2023-04-26T07:28:19.338Z,821.6667
2023-04-26T07:29:23.471Z,826.3333
2023-04-26T07:30:27.658Z,828.8333
2023-04-26T07:31:31.830Z,838.5833
2023-04-26T07:32:36.122Z,835.3333
2023-04-26T07:33:40.486Z,825.1667
2023-04-26T07:34:44.679Z,819.5833
2023-04-26T07:35:48.836Z,822.3333
2023-04-26T07:36:53.033Z,827.3333
2023-04-26T07:37:57.243Z,835.7500
2023-04-26T07:39:01.425Z,835.4167
2023-04-26T07:40:05.560Z,823.0000
2023-04-26T07:41:09.990Z,817.6667
2023-04-26T07:42:14.144Z,821.5000
2023-04-26T07:43:18.322Z,824.4167
2023-04-26T07:44:22.466Z,837.2500
2023-04-26T07:45:26.665Z,844.1667
2023-04-26T07:46:30.826Z,831.1667
2023-04-26T07:47:35.060Z,823.6667
2023-04-26T07:48:39.217Z,821.4167
2023-04-26T07:49:44.372Z,820.9167
2023-04-26T07:50:44.078Z,828.6364
2023-04-26T07:51:48.260Z,830.6667
2023-04-26T07:52:52.407Z,821.4167
2023-04-26T07:53:56.584Z,817.4167
2023-04-26T07:55:00.732Z,819.5833
2023-04-26T07:56:04.934Z,822.0833
2023-04-26T07:57:09.081Z,827.0000
2023-04-26T07:58:13.483Z,836.5000
2023-04-26T07:59:17.644Z,827.0000
2023-04-26T08:00:21.833Z,817.6667
2023-04-26T08:01:25.989Z,814.5000
2023-04-26T08:02:43.533Z,816.2500
2023-04-26T08:03:35.164Z,817.3636
2023-04-26T08:04:39.820Z,829.5000
2023-04-26T08:05:44.458Z,822.5833
2023-04-26T08:06:48.685Z,810.3333
2023-04-26T08:07:52.863Z,809.0833
2023-04-26T08:08:57.284Z,812.2500
2023-04-26T08:10:01.417Z,817.3333
2023-04-26T08:11:05.586Z,830.2500
2023-04-26T08:12:09.784Z,826.6667
2023-04-26T08:13:13.991Z,816.2500
2023-04-26T08:14:18.137Z,814.9167
2023-04-26T08:15:22.311Z,813.8333
2023-04-26T08:16:26.589Z,817.0833
2023-04-26T08:17:30.758Z,835.4167
2023-04-26T08:18:34.909Z,833.7500
2023-04-26T08:19:39.074Z,821.6667
2023-04-26T08:20:43.220Z,819.0000
2023-04-26T08:21:47.393Z,819.3333
2023-04-26T08:22:51.539Z,822.1667
2023-04-26T08:23:55.849Z,832.3333
2023-04-26T08:25:00.047Z,835.1667
2023-04-26T08:26:04.216Z,824.0000
2023-04-26T08:27:08.372Z,819.8333
2023-04-26T08:28:12.533Z,818.9167
2023-04-26T08:29:16.690Z,819.1667
2023-04-26T08:30:20.917Z,826.3333
2023-04-26T08:31:25.210Z,830.6667
2023-04-26T08:32:29.413Z,821.0833
2023-04-26T08:33:33.549Z,817.2500
2023-04-26T08:34:37.730Z,821.1667
2023-04-26T08:35:38.081Z,824.5455
2023-04-26T08:36:42.326Z,831.5833
2023-04-26T08:37:46.449Z,843.9167
2023-04-26T08:38:50.875Z,824.0000
2023-04-26T08:39:55.037Z,809.8333
2023-04-26T08:40:59.253Z,811.2500
2023-04-26T08:42:03.412Z,814.5833
2023-04-26T08:43:07.605Z,824.4167
2023-04-26T08:44:11.768Z,841.5833
2023-04-26T08:45:15.930Z,833.9167
2023-04-26T08:46:20.116Z,826.3333
2023-04-26T08:47:24.327Z,824.3333
2023-04-26T08:48:28.473Z,823.6667
2023-04-26T08:49:32.747Z,823.7500
2023-04-26T08:50:36.910Z,833.0000
2023-04-26T08:51:41.072Z,829.0833
2023-04-26T08:52:45.224Z,819.6667
2023-04-26T08:53:49.439Z,816.8333
2023-04-26T08:54:53.665Z,816.7500
2023-04-26T08:55:57.820Z,818.5833
2023-04-26T08:57:01.966Z,828.8333
2023-04-26T08:58:06.141Z,825.5000
2023-04-26T08:59:10.292Z,811.5000
2023-04-26T09:00:14.472Z,811.2500
2023-04-26T09:01:18.636Z,813.4167
2023-04-26T09:02:22.973Z,815.1667
2023-04-26T09:03:27.484Z,828.4167
2023-04-26T09:04:31.971Z,833.1667
2023-04-26T09:05:36.213Z,818.7500
2023-04-26T09:06:40.394Z,819.8333
2023-04-26T09:07:44.563Z,822.0833
2023-04-26T09:08:48.763Z,823.1667
2023-04-26T09:09:52.921Z,828.5833
2023-04-26T09:10:57.103Z,833.5000
2023-04-26T09:12:01.250Z,820.8333
2023-04-26T09:13:05.418Z,815.9167
2023-04-26T09:14:09.560Z,814.1667
2023-04-26T09:15:13.741Z,816.3333
2023-04-26T09:16:17.956Z,821.7500
2023-04-26T09:17:22.227Z,830.6667
2023-04-26T09:18:26.360Z,821.2500
2023-04-26T09:19:30.692Z,818.0000
2023-04-26T09:20:34.809Z,818.3333
2023-04-26T09:21:39.018Z,818.5000
2023-04-26T09:22:43.153Z,826.9167
2023-04-26T09:23:47.325Z,835.4167
2023-04-26T09:24:51.467Z,822.9167
2023-04-26T09:25:55.664Z,819.0000
2023-04-26T09:26:59.844Z,817.6667
2023-04-26T09:28:04.176Z,817.7500
2023-04-26T09:29:08.336Z,822.9167
2023-04-26T09:30:12.485Z,830.6667
2023-04-26T09:31:16.846Z,822.0833
2023-04-26T09:32:21.032Z,815.5000
2023-04-26T09:33:25.242Z,815.5833
2023-04-26T09:34:29.413Z,815.4167
2023-04-26T09:35:33.574Z,821.0000
2023-04-26T09:36:37.750Z,830.4167
2023-04-26T09:37:50.975Z,812.0833
2023-04-26T09:38:46.632Z,803.8182
2023-04-26T09:39:50.845Z,804.3333
2023-04-26T09:40:54.969Z,806.4167
2023-04-26T09:41:59.146Z,816.7500
2023-04-26T09:43:03.309Z,830.6667
2023-04-26T09:44:07.487Z,819.6667
2023-04-26T09:45:11.631Z,805.8333
2023-04-26T09:46:15.817Z,808.0833
2023-04-26T09:47:19.976Z,815.0833
2023-04-26T09:48:24.148Z,815.8333
2023-04-26T09:49:28.298Z,821.9167
2023-04-26T09:50:32.479Z,821.8333
2023-04-26T09:51:36.625Z,814.0833
2023-04-26T09:52:40.823Z,814.9167
2023-04-26T09:53:45.185Z,815.9167
2023-04-26T09:54:49.387Z,815.6667
2023-04-26T09:55:53.518Z,824.6667
2023-04-26T09:56:57.687Z,825.2500
2023-04-26T09:58:01.861Z,812.1667
2023-04-26T09:59:06.044Z,806.7500
2023-04-26T10:00:10.192Z,807.8333
2023-04-26T10:01:14.407Z,809.3333
2023-04-26T10:02:18.625Z,820.5000
2023-04-26T10:03:22.930Z,827.4167
2023-04-26T10:04:27.206Z,819.8333
2023-04-26T10:05:32.420Z,817.9167
2023-04-26T10:06:32.704Z,818.7273
2023-04-26T10:07:36.885Z,819.5000
2023-04-26T10:08:41.081Z,825.0000
2023-04-26T10:09:45.243Z,835.1667
2023-04-26T10:10:49.399Z,831.3333
2023-04-26T10:11:53.649Z,821.9167
2023-04-26T10:12:57.795Z,816.4167
2023-04-26T10:14:01.971Z,818.0833
2023-04-26T10:15:06.144Z,818.3333
2023-04-26T10:16:10.469Z,831.0833
2023-04-26T10:17:14.719Z,828.6667
2023-04-26T10:18:18.915Z,815.8333
2023-04-26T10:19:23.128Z,812.2500
2023-04-26T10:20:27.314Z,812.9167
2023-04-26T10:21:31.533Z,817.1667
2023-04-26T10:22:35.715Z,827.0000
2023-04-26T10:23:40.105Z,824.9167
2023-04-26T10:24:44.300Z,817.5833
2023-04-26T10:25:48.466Z,816.5000
2023-04-26T10:26:52.699Z,814.9167
2023-04-26T10:27:56.861Z,816.5833
2023-04-26T10:29:02.931Z,835.2500
2023-04-26T10:30:02.266Z,832.3636
2023-04-26T10:31:06.467Z,818.1667
2023-04-26T10:32:10.690Z,814.6667
2023-04-26T10:33:14.994Z,816.0000
2023-04-26T10:34:19.187Z,817.2500
2023-04-26T10:35:23.392Z,827.7500
2023-04-26T10:36:27.557Z,831.4167
2023-04-26T10:37:31.791Z,821.4167
2023-04-26T10:38:35.962Z,817.6667
2023-04-26T10:39:40.191Z,817.7500
2023-04-26T10:40:44.346Z,818.3333
2023-04-26T10:41:48.555Z,823.9167
2023-04-26T10:42:52.752Z,832.2500
2023-04-26T10:43:56.960Z,827.4167
2023-04-26T10:45:01.119Z,821.5000
2023-04-26T10:46:05.359Z,820.9167
2023-04-26T10:47:09.564Z,822.7500
2023-04-26T10:48:13.769Z,827.0000
2023-04-26T10:49:17.970Z,837.8333
2023-04-26T10:50:22.165Z,830.5000
2023-04-26T10:51:26.348Z,823.2500
2023-04-26T10:52:30.560Z,821.9167
2023-04-26T10:53:34.725Z,821.0000
2023-04-26T10:54:38.921Z,820.3333
2023-04-26T10:55:43.420Z,831.1667
2023-04-26T10:56:47.593Z,821.6667
2023-04-26T10:57:51.788Z,800.0000
2023-04-26T10:58:56.012Z,804.8333
2023-04-26T11:00:00.228Z,814.1667
2023-04-26T11:01:04.414Z,817.3333
2023-04-26T11:02:08.707Z,833.0833
2023-04-26T11:03:13.172Z,833.4167
2023-04-26T11:04:17.492Z,812.5000
2023-04-26T11:05:23.515Z,809.3333
2023-04-26T11:06:23.621Z,810.0000
2023-04-26T11:07:27.808Z,810.8333
2023-04-26T11:08:32.051Z,826.0000
2023-04-26T11:09:36.214Z,831.1667
2023-04-26T11:10:40.429Z,814.0000
2023-04-26T11:11:44.606Z,811.1667
2023-04-26T11:12:48.781Z,812.4167
2023-04-26T11:13:52.967Z,814.4167
2023-04-26T11:14:57.135Z,833.7500
2023-04-26T11:16:01.368Z,835.9167
2023-04-26T11:17:05.572Z,809.8333
2023-04-26T11:18:09.766Z,805.2500
2023-04-26T11:19:13.943Z,805.8333
2023-04-26T11:20:18.158Z,809.7500
2023-04-26T11:21:22.342Z,818.0833
2023-04-26T11:22:26.526Z,823.1667
2023-04-26T11:23:30.709Z,816.6667
2023-04-26T11:24:34.908Z,817.5000
2023-04-26T11:25:39.089Z,817.6667
2023-04-26T11:26:43.295Z,815.8333
2023-04-26T11:27:47.519Z,819.3333
2023-04-26T11:28:51.861Z,826.0833
2023-04-26T11:29:56.149Z,808.4167
2023-04-26T11:31:00.397Z,803.5833
2023-04-26T11:32:04.577Z,809.3333
2023-04-26T11:33:08.792Z,809.4167
2023-04-26T11:34:12.960Z,814.0000
2023-04-26T11:35:17.177Z,823.8333
2023-04-26T11:36:21.359Z,818.5833
2023-04-26T11:37:25.549Z,812.6667
2023-04-26T11:38:29.726Z,814.2500
2023-04-26T11:39:33.926Z,815.4167
2023-04-26T11:40:38.119Z,818.2500
2023-04-26T11:41:42.320Z,833.0000
2023-04-26T11:42:46.500Z,825.1667
2023-04-26T11:43:50.819Z,813.5833
2023-04-26T11:44:55.044Z,811.8333
2023-04-26T11:45:59.402Z,814.8333
2023-04-26T11:47:03.646Z,816.0000
2023-04-26T11:48:07.904Z,826.4167
2023-04-26T11:49:12.060Z,812.9167
2023-04-26T11:50:16.526Z,801.0000
2023-04-26T11:51:20.687Z,801.5000
2023-04-26T11:52:24.912Z,805.0000
2023-04-26T11:53:29.347Z,808.5833
2023-04-26T11:54:33.551Z,818.3333
2023-04-26T11:55:37.732Z,814.9167
2023-04-26T11:56:41.915Z,804.6667
2023-04-26T11:57:46.102Z,804.0000
2023-04-26T11:58:50.669Z,805.5000
2023-04-26T11:59:55.239Z,806.6667
2023-04-26T12:00:59.634Z,818.4167
2023-04-26T12:02:03.826Z,819.0833
2023-04-26T12:03:08.222Z,805.8333
2023-04-26T12:04:12.629Z,800.8333
2023-04-26T12:05:16.956Z,802.4167
2023-04-26T12:06:21.197Z,804.8333
2023-04-26T12:07:25.372Z,812.0833
2023-04-26T12:08:29.557Z,824.5833
2023-04-26T12:09:33.760Z,814.5000
2023-04-26T12:10:37.955Z,809.0833
2023-04-26T12:11:42.272Z,811.0000
2023-04-26T12:12:46.415Z,813.4167
2023-04-26T12:13:50.631Z,814.8333
2023-04-26T12:14:54.814Z,823.9167
2023-04-26T12:15:59.011Z,817.1667
2023-04-26T12:17:03.280Z,807.1667
2023-04-26T12:18:07.625Z,805.9167
2023-04-26T12:19:11.868Z,809.2500
2023-04-26T12:20:16.072Z,811.6667
2023-04-26T12:21:20.245Z,828.1667
2023-04-26T12:22:24.444Z,820.2500
2023-04-26T12:23:28.629Z,806.0833
2023-04-26T12:24:33.669Z,801.4167
2023-04-26T12:25:37.850Z,802.5833
2023-04-26T12:26:42.055Z,804.4167
2023-04-26T12:27:46.259Z,811.2500
2023-04-26T12:28:50.459Z,810.8333
2023-04-26T12:29:54.733Z,802.5833
2023-04-26T12:30:58.930Z,801.5833
2023-04-26T12:32:03.531Z,804.9167
2023-04-26T12:33:16.513Z,807.7500